Waldo, Ohio
Current Conditions -  °F | °C
As of 5:04 AM on Tuesday 21 Oct 2014 (Local Time) from KMNN Reporting Station
Haze Haze  
Wind Chill: 50°   Ceiling: 600
Heat Index: 50°   Visibility: 4mi
Dew Point: 48°   Wind: 7mph
Humidity: 93%   Direction: 290°WNW
Pressure: 29.89"   Gusts: NA
Location:  40.46°N, 83.08°W
Report Text: KMNN 210904Z AUTO 29006KT 4SM BR BKN006 OVC011 10/09 A2989 RMK AO2 CIG 005V009 T01000089 TSNO
Loading
Personal Weather Stations






























Interactive Weather Map New forecast layout! Learn more

10-Day Weather Forecast

Advertisements
Track Severe Weather on mobile